Terminal Aerodrome Forecast
Issued by NWS

Home | Current Version | Previous Version | Text Only | Print | Product List | Glossary On
Versions: 1 2 3 4 5 6 7 8 9 10 11 12 13 14 15 16 17 18 19 20 21 22 23 24 25 26 27 28
000
FTAK31 PANC 251740
TAFACD
TAF
PACD 251740Z 2518/2618 26008KT P6SM BKN050
     FM260000 26014KT P6SM BKN045
     FM260900 18018G26KT P6SM -RA SCT025 BKN035
     FM261200 23020G28KT P6SM -RA OVC025
     FM261600 28015KT 4SM -RA SCT012 OVC020=

USA.gov is the U.S. government's official web portal to all federal, state and local government web resources and services.